createdAt,value
2019-02-24T00:01:51.861Z,5.53
2019-02-24T00:04:20.732Z,5.80
2019-02-24T00:06:49.720Z,5.17
2019-02-24T00:09:19.214Z,5.90
2019-02-24T00:11:48.239Z,5.40
2019-02-24T00:14:17.213Z,5.47
2019-02-24T00:16:46.232Z,5.23
2019-02-24T00:19:15.126Z,5.70
2019-02-24T00:21:44.457Z,5.63
2019-02-24T00:24:13.675Z,5.60
2019-02-24T00:26:43.184Z,6.00
2019-02-24T00:29:12.190Z,7.08
2019-02-24T00:31:41.065Z,5.87
2019-02-24T00:34:10.038Z,5.85
2019-02-24T00:36:39.875Z,6.57
2019-02-24T00:39:08.939Z,5.00
2019-02-24T00:41:37.979Z,5.13
2019-02-24T00:44:07.259Z,5.83
2019-02-24T00:46:36.093Z,5.90
2019-02-24T00:49:05.056Z,5.72
2019-02-24T00:51:34.106Z,4.83
2019-02-24T00:54:03.115Z,6.08
2019-02-24T00:56:32.126Z,5.50
2019-02-24T00:59:01.085Z,5.67
2019-02-24T01:01:30.317Z,5.20
2019-02-24T01:04:00.012Z,4.92
2019-02-24T01:06:29.306Z,4.50
2019-02-24T01:08:58.356Z,5.45
2019-02-24T01:11:28.026Z,5.40
2019-02-24T01:13:57.072Z,5.08
2019-02-24T01:16:26.003Z,4.97
2019-02-24T01:18:54.874Z,5.10
2019-02-24T01:21:23.909Z,5.60
2019-02-24T01:23:53.412Z,5.65
2019-02-24T01:26:22.499Z,5.15
2019-02-24T01:28:51.352Z,6.20
2019-02-24T01:31:20.222Z,5.77
2019-02-24T01:33:49.077Z,4.72
2019-02-24T01:36:18.455Z,6.47
2019-02-24T01:38:47.876Z,5.72
2019-02-24T01:41:17.016Z,5.63
2019-02-24T01:43:46.274Z,6.33
2019-02-24T01:46:15.455Z,5.45
2019-02-24T01:48:44.742Z,5.67
2019-02-24T01:51:13.679Z,6.17
2019-02-24T01:53:43.094Z,6.37
2019-02-24T01:56:12.128Z,5.70
2019-02-24T01:58:41.022Z,6.28
2019-02-24T02:01:10.034Z,6.07
2019-02-24T02:03:38.948Z,5.40
2019-02-24T02:06:08.318Z,5.63
2019-02-24T02:08:37.241Z,5.87
2019-02-24T02:11:06.232Z,6.27
2019-02-24T02:13:35.487Z,6.35
2019-02-24T02:16:04.519Z,6.07
2019-02-24T02:18:33.738Z,5.90
2019-02-24T02:21:02.963Z,5.70
2019-02-24T02:23:31.855Z,5.83
2019-02-24T02:26:00.898Z,6.47
2019-02-24T02:28:30.219Z,6.17
2019-02-24T02:30:59.186Z,5.83
2019-02-24T02:33:28.224Z,5.47
2019-02-24T02:35:57.106Z,5.97
2019-02-24T02:38:25.919Z,5.30
2019-02-24T02:40:54.764Z,5.57
2019-02-24T02:43:23.971Z,6.00
2019-02-24T02:45:52.826Z,5.70
2019-02-24T02:48:22.150Z,6.15
2019-02-24T02:50:51.175Z,6.73
2019-02-24T02:53:20.110Z,6.55
2019-02-24T02:55:49.515Z,6.17
2019-02-24T02:58:18.594Z,6.12
2019-02-24T03:00:47.506Z,6.03
2019-02-24T03:03:16.519Z,5.92
2019-02-24T03:05:57.608Z,6.10
2019-02-24T03:08:45.246Z,6.83
2019-02-24T03:11:14.494Z,6.53
2019-02-24T03:13:43.646Z,6.30
2019-02-24T03:16:12.726Z,5.53
2019-02-24T03:18:41.669Z,6.08
2019-02-24T03:21:10.627Z,5.90
2019-02-24T03:23:39.517Z,5.90
2019-02-24T03:26:08.380Z,5.80
2019-02-24T03:28:37.286Z,5.50
2019-02-24T03:31:06.243Z,6.10
2019-02-24T03:33:35.171Z,5.83
2019-02-24T03:36:04.192Z,5.00
2019-02-24T03:38:33.145Z,5.28
2019-02-24T03:41:02.162Z,4.93
2019-02-24T03:43:31.190Z,5.30
2019-02-24T03:46:00.496Z,6.00
2019-02-24T03:48:29.585Z,5.45
2019-02-24T03:50:58.601Z,5.90
2019-02-24T03:53:27.618Z,5.90
2019-02-24T03:55:57.657Z,5.47
2019-02-24T03:58:27.341Z,4.83
2019-02-24T04:00:56.470Z,5.13
2019-02-24T04:03:25.470Z,4.97
2019-02-24T04:05:54.478Z,5.12
2019-02-24T04:08:23.635Z,5.10
2019-02-24T04:10:52.467Z,4.50
2019-02-24T04:13:21.570Z,5.20
2019-02-24T04:15:50.556Z,5.07
2019-02-24T04:18:19.503Z,4.40
2019-02-24T04:20:48.789Z,5.20
2019-02-24T04:23:17.684Z,5.05
2019-02-24T04:25:46.618Z,5.05
2019-02-24T04:28:15.967Z,4.92
2019-02-24T04:30:44.843Z,4.67
2019-02-24T04:33:13.755Z,5.03
2019-02-24T04:35:43.098Z,4.85
2019-02-24T04:38:12.036Z,5.47
2019-02-24T04:40:40.949Z,5.20
2019-02-24T04:43:09.954Z,4.65
2019-02-24T04:45:38.971Z,4.80
2019-02-24T04:48:07.874Z,5.00
2019-02-24T04:50:37.006Z,4.63
2019-02-24T04:53:06.050Z,4.37
2019-02-24T04:55:35.099Z,4.10
2019-02-24T04:58:04.106Z,4.20
2019-02-24T05:00:32.991Z,3.90
2019-02-24T05:03:01.778Z,4.37
2019-02-24T05:05:31.151Z,3.87
2019-02-24T05:08:00.582Z,3.02
2019-02-24T05:10:29.861Z,3.60
2019-02-24T05:12:58.897Z,3.35
2019-02-24T05:15:28.268Z,3.90
2019-02-24T05:17:57.468Z,3.55
2019-02-24T05:20:26.882Z,3.40
2019-02-24T05:22:56.150Z,3.42
2019-02-24T05:25:25.107Z,3.08
2019-02-24T05:27:54.081Z,3.30
2019-02-24T05:30:22.954Z,3.50
2019-02-24T05:32:51.967Z,3.10
2019-02-24T05:35:21.327Z,3.15
2019-02-24T05:37:50.702Z,3.10
2019-02-24T05:40:19.668Z,3.02
2019-02-24T05:42:48.606Z,2.77
2019-02-24T05:45:17.444Z,3.00
2019-02-24T05:47:46.383Z,3.72
2019-02-24T05:50:15.614Z,3.30
2019-02-24T05:52:44.600Z,3.37
2019-02-24T05:55:13.542Z,3.77
2019-02-24T05:57:42.529Z,3.65
2019-02-24T06:00:11.563Z,3.70
2019-02-24T06:02:40.606Z,2.92
2019-02-24T06:05:09.621Z,2.80
2019-02-24T06:07:38.854Z,3.25
2019-02-24T06:10:08.111Z,3.55
2019-02-24T06:12:37.056Z,2.95
2019-02-24T06:15:06.250Z,3.27
2019-02-24T06:17:35.056Z,2.90
2019-02-24T06:20:04.390Z,3.47
2019-02-24T06:22:33.373Z,3.08
2019-02-24T06:25:02.312Z,3.08
2019-02-24T06:27:31.274Z,2.33
2019-02-24T06:30:04.900Z,2.95
2019-02-24T06:32:30.963Z,3.00
2019-02-24T06:34:59.907Z,3.33
2019-02-24T06:37:29.122Z,3.60
2019-02-24T06:39:58.128Z,3.50
2019-02-24T06:42:27.135Z,3.43
2019-02-24T06:44:56.321Z,3.42
2019-02-24T06:47:25.296Z,3.40
2019-02-24T06:49:54.307Z,3.65
2019-02-24T06:52:25.043Z,3.23
2019-02-24T06:54:54.663Z,3.58
2019-02-24T06:57:23.884Z,3.12
2019-02-24T06:59:52.903Z,3.33
2019-02-24T07:02:21.742Z,3.20
2019-02-24T07:04:50.865Z,3.00
2019-02-24T07:07:19.842Z,3.53
2019-02-24T07:09:49.170Z,3.10
2019-02-24T07:12:18.228Z,3.17
2019-02-24T07:14:47.083Z,3.05
2019-02-24T07:17:16.388Z,3.37
2019-02-24T07:19:45.209Z,2.85
2019-02-24T07:22:14.395Z,2.80
2019-02-24T07:24:43.347Z,3.00
2019-02-24T07:27:12.335Z,3.00
2019-02-24T07:29:41.780Z,2.60
2019-02-24T07:32:10.908Z,2.87
2019-02-24T07:34:39.939Z,2.40
2019-02-24T07:37:13.024Z,2.83
2019-02-24T07:39:39.594Z,2.42
2019-02-24T07:42:08.689Z,2.70
2019-02-24T07:44:37.613Z,2.98
2019-02-24T07:47:06.670Z,3.50
2019-02-24T07:49:35.709Z,3.20
2019-02-24T07:52:04.833Z,3.53
2019-02-24T07:54:33.806Z,3.17
2019-02-24T07:57:02.655Z,3.47
2019-02-24T07:59:31.558Z,3.60
2019-02-24T08:02:00.743Z,3.40
2019-02-24T08:04:29.778Z,3.67
2019-02-24T08:06:59.130Z,3.40
2019-02-24T08:09:28.184Z,3.10
2019-02-24T08:11:57.241Z,3.03
2019-02-24T08:14:26.282Z,3.30
2019-02-24T08:16:55.280Z,3.10
2019-02-24T08:19:24.232Z,3.33
2019-02-24T08:21:53.259Z,3.10
2019-02-24T08:24:22.445Z,3.30
2019-02-24T08:26:51.418Z,3.13
2019-02-24T08:29:20.439Z,3.03
2019-02-24T08:31:49.360Z,3.10
2019-02-24T08:34:18.637Z,3.00
2019-02-24T08:36:47.748Z,3.40
2019-02-24T08:39:16.707Z,2.97
2019-02-24T08:41:45.614Z,3.03
2019-02-24T08:44:14.582Z,3.30
2019-02-24T08:46:44.195Z,2.67
2019-02-24T08:49:13.647Z,3.13
2019-02-24T08:51:42.666Z,2.97
2019-02-24T08:54:11.807Z,2.87
2019-02-24T08:56:40.999Z,3.60
2019-02-24T08:59:10.243Z,2.93
2019-02-24T09:01:39.120Z,2.50
2019-02-24T09:04:07.989Z,2.80
2019-02-24T09:06:36.918Z,2.83
2019-02-24T09:09:06.328Z,2.47
2019-02-24T09:11:35.659Z,3.03
2019-02-24T09:14:04.576Z,2.57
2019-02-24T09:16:33.515Z,3.20
2019-02-24T09:19:02.800Z,2.60
2019-02-24T09:21:31.698Z,2.60
2019-02-24T09:24:00.815Z,2.50
2019-02-24T09:26:29.691Z,3.23
2019-02-24T09:28:58.637Z,2.57
2019-02-24T09:31:27.597Z,2.80
2019-02-24T09:33:56.578Z,2.30
2019-02-24T09:36:25.502Z,2.30
2019-02-24T09:38:54.459Z,2.33
2019-02-24T09:41:23.503Z,2.50
2019-02-24T09:43:52.373Z,2.40
2019-02-24T09:46:21.623Z,2.60
2019-02-24T09:48:50.535Z,2.35
2019-02-24T09:51:19.660Z,2.45
2019-02-24T09:53:48.465Z,2.30
2019-02-24T09:56:17.478Z,2.60
2019-02-24T09:58:46.871Z,2.47
2019-02-24T10:01:15.840Z,2.57
2019-02-24T10:03:44.785Z,2.40
2019-02-24T10:06:13.960Z,2.40
2019-02-24T10:08:42.947Z,2.50
2019-02-24T10:11:13.189Z,1.90
2019-02-24T10:13:42.340Z,2.45
2019-02-24T10:16:11.299Z,2.53
2019-02-24T10:18:40.150Z,2.23
2019-02-24T10:21:09.060Z,2.50
2019-02-24T10:23:37.990Z,1.97
2019-02-24T10:26:06.989Z,1.87
2019-02-24T10:28:35.871Z,2.13
2019-02-24T10:31:04.879Z,1.93
2019-02-24T10:33:33.835Z,2.10
2019-02-24T10:36:03.020Z,2.17
2019-02-24T10:38:32.020Z,2.30
2019-02-24T10:41:00.963Z,1.87
2019-02-24T10:43:29.862Z,1.97
2019-02-24T10:45:58.992Z,1.90
2019-02-24T10:48:28.022Z,2.03
2019-02-24T10:50:57.046Z,2.13
2019-02-24T10:53:28.098Z,2.00
2019-02-24T10:55:56.675Z,1.50
2019-02-24T10:58:34.288Z,2.00
2019-02-24T11:00:56.208Z,1.63
2019-02-24T11:03:25.061Z,2.00
2019-02-24T11:05:53.919Z,2.33
2019-02-24T11:08:22.900Z,2.23
2019-02-24T11:10:52.003Z,1.93
2019-02-24T11:13:21.035Z,2.07
2019-02-24T11:15:49.892Z,2.10
2019-02-24T11:18:18.883Z,1.80
2019-02-24T11:20:47.837Z,2.20
2019-02-24T11:23:17.158Z,1.40
2019-02-24T11:25:46.583Z,1.80
2019-02-24T11:28:15.891Z,1.80
2019-02-24T11:30:44.878Z,2.00
2019-02-24T11:33:13.846Z,1.70
2019-02-24T11:35:42.804Z,1.90
2019-02-24T11:38:11.970Z,1.57
2019-02-24T11:40:41.242Z,2.00
2019-02-24T11:43:10.230Z,2.27
2019-02-24T11:45:39.251Z,1.60
2019-02-24T11:48:08.249Z,1.77
2019-02-24T11:50:37.343Z,1.77
2019-02-24T11:53:06.616Z,2.00
2019-02-24T11:55:35.562Z,1.63
2019-02-24T11:58:04.840Z,2.00
2019-02-24T12:00:33.971Z,1.73
2019-02-24T12:03:03.423Z,1.90
2019-02-24T12:05:32.435Z,2.03
2019-02-24T12:08:01.775Z,2.10
2019-02-24T12:10:30.725Z,1.70
2019-02-24T12:12:59.713Z,1.40
2019-02-24T12:15:28.664Z,1.83
2019-02-24T12:17:57.519Z,2.00
2019-02-24T12:20:27.005Z,1.50
2019-02-24T12:22:56.002Z,1.63
2019-02-24T12:25:24.910Z,1.63
2019-02-24T12:27:53.907Z,1.67
2019-02-24T12:30:22.810Z,2.73
2019-02-24T12:32:51.661Z,2.20
2019-02-24T12:35:21.223Z,1.70
2019-02-24T12:37:50.170Z,1.90
2019-02-24T12:40:19.484Z,1.90
2019-02-24T12:42:48.632Z,1.70
2019-02-24T12:45:17.607Z,1.70
2019-02-24T12:47:46.843Z,1.70
2019-02-24T12:50:15.904Z,1.70
2019-02-24T12:52:44.828Z,2.23
2019-02-24T12:55:13.846Z,1.70
2019-02-24T12:57:42.858Z,1.90
2019-02-24T13:00:15.548Z,1.73
2019-02-24T13:02:44.863Z,1.60
2019-02-24T13:05:13.923Z,1.50
2019-02-24T13:07:42.849Z,1.60
2019-02-24T13:10:13.490Z,2.00
2019-02-24T13:12:42.454Z,1.40
2019-02-24T13:15:11.423Z,1.60
2019-02-24T13:17:40.469Z,1.80
2019-02-24T13:20:10.109Z,1.57
2019-02-24T13:22:39.500Z,1.80
2019-02-24T13:25:09.871Z,1.67
2019-02-24T13:27:39.050Z,1.93
2019-02-24T13:30:10.390Z,1.37
2019-02-24T13:32:39.394Z,1.50
2019-02-24T13:35:08.498Z,1.43
2019-02-24T13:37:37.362Z,1.33
2019-02-24T13:40:07.088Z,1.33
2019-02-24T13:42:36.132Z,1.70
2019-02-24T13:45:06.481Z,1.70
2019-02-24T13:47:35.756Z,1.43
2019-02-24T13:50:05.238Z,1.57
2019-02-24T13:52:34.192Z,1.20
2019-02-24T13:55:03.160Z,1.33
2019-02-24T13:57:32.003Z,1.37
2019-02-24T14:00:00.937Z,1.30
2019-02-24T14:02:29.918Z,1.47
2019-02-24T14:04:58.790Z,1.40
2019-02-24T14:07:28.122Z,1.53
2019-02-24T14:09:57.071Z,1.20
2019-02-24T14:12:26.210Z,1.50
2019-02-24T14:14:55.066Z,1.37
2019-02-24T14:17:23.994Z,1.40
2019-02-24T14:19:53.006Z,1.70
2019-02-24T14:22:22.557Z,1.57
2019-02-24T14:24:51.611Z,1.50
2019-02-24T14:27:20.591Z,1.37
2019-02-24T14:29:49.460Z,1.20
2019-02-24T14:32:18.659Z,1.53
2019-02-24T14:34:47.599Z,1.67
2019-02-24T14:37:16.463Z,2.10
2019-02-24T14:39:46.056Z,1.53
2019-02-24T14:42:14.951Z,1.30
2019-02-24T14:44:43.851Z,1.47
2019-02-24T14:47:12.997Z,1.30
2019-02-24T14:49:42.259Z,1.47
2019-02-24T14:52:11.061Z,1.50
2019-02-24T14:54:39.990Z,1.60
2019-02-24T14:57:09.180Z,1.40
2019-02-24T14:59:38.148Z,1.00
2019-02-24T15:02:07.038Z,3.63
2019-02-24T15:04:36.007Z,1.80
2019-02-24T15:07:04.991Z,1.60
2019-02-24T15:09:37.553Z,1.03
2019-02-24T15:12:06.411Z,1.27
2019-02-24T15:14:35.285Z,1.27
2019-02-24T15:17:04.538Z,1.13
2019-02-24T15:19:33.511Z,1.47
2019-02-24T15:22:02.567Z,1.33
2019-02-24T15:24:31.647Z,1.10
2019-02-24T15:27:01.941Z,1.20
2019-02-24T15:29:31.786Z,1.47
2019-02-24T15:32:00.670Z,1.17
2019-02-24T15:34:29.663Z,1.40
2019-02-24T15:36:58.927Z,1.20
2019-02-24T15:39:28.627Z,1.20
2019-02-24T15:41:57.622Z,1.30
2019-02-24T15:44:26.901Z,1.33
2019-02-24T15:46:55.851Z,1.17
2019-02-24T15:49:24.762Z,1.30
2019-02-24T15:51:53.829Z,1.27
2019-02-24T15:54:22.902Z,1.10
2019-02-24T15:56:51.807Z,1.30
2019-02-24T15:59:20.691Z,1.00
2019-02-24T16:01:49.887Z,1.37
2019-02-24T16:04:19.355Z,1.07
2019-02-24T16:06:48.403Z,1.00
2019-02-24T16:09:17.431Z,0.90
2019-02-24T16:11:46.627Z,1.60
2019-02-24T16:14:15.975Z,1.20
2019-02-24T16:16:45.023Z,1.13
2019-02-24T16:19:13.972Z,1.20
2019-02-24T16:21:42.901Z,0.90
2019-02-24T16:24:11.855Z,1.27
2019-02-24T16:26:40.726Z,1.07
2019-02-24T16:29:09.611Z,1.20
2019-02-24T16:31:38.482Z,1.07
2019-02-24T16:34:08.219Z,1.20
2019-02-24T16:36:37.063Z,1.10
2019-02-24T16:39:06.153Z,1.13
2019-02-24T16:41:34.984Z,1.20
2019-02-24T16:44:04.061Z,1.30
2019-02-24T16:46:33.067Z,1.40
2019-02-24T16:49:03.462Z,1.03
2019-02-24T16:51:32.705Z,1.20
2019-02-24T16:54:01.594Z,1.30
2019-02-24T16:56:30.554Z,1.23
2019-02-24T16:58:59.567Z,1.70
2019-02-24T17:01:28.407Z,1.40
2019-02-24T17:03:57.482Z,1.40
2019-02-24T17:06:26.647Z,1.50
2019-02-24T17:09:00.620Z,1.77
2019-02-24T17:11:26.842Z,1.80
2019-02-24T17:13:55.884Z,1.70
2019-02-24T17:16:24.755Z,2.27
2019-02-24T17:18:53.610Z,2.30
2019-02-24T17:21:22.430Z,2.20
2019-02-24T17:23:52.423Z,3.93
2019-02-24T17:26:21.434Z,3.63
2019-02-24T17:28:50.799Z,3.53
2019-02-24T17:31:28.169Z,3.03
2019-02-24T17:33:52.668Z,3.30
2019-02-24T17:36:21.587Z,4.20
2019-02-24T17:38:50.874Z,4.93
2019-02-24T17:41:19.916Z,3.87
2019-02-24T17:43:49.482Z,3.63
2019-02-24T17:46:18.455Z,3.50
2019-02-24T17:48:47.311Z,3.50
2019-02-24T17:51:21.246Z,3.47
2019-02-24T17:53:47.390Z,3.47
2019-02-24T17:56:16.370Z,3.10
2019-02-24T17:58:45.339Z,3.08
2019-02-24T18:01:14.382Z,3.40
2019-02-24T18:03:43.619Z,2.92
2019-02-24T18:06:12.490Z,2.70
2019-02-24T18:08:41.587Z,2.75
2019-02-24T18:11:10.759Z,2.37
2019-02-24T18:13:39.711Z,2.00
2019-02-24T18:16:09.091Z,1.87
2019-02-24T18:18:38.759Z,3.37
2019-02-24T18:21:07.830Z,3.70
2019-02-24T18:23:36.747Z,3.02
2019-02-24T18:26:05.628Z,2.53
2019-02-24T18:28:34.633Z,2.50
2019-02-24T18:31:03.636Z,2.30
2019-02-24T18:33:32.830Z,2.60
2019-02-24T18:36:01.886Z,2.07
2019-02-24T18:38:30.760Z,2.30
2019-02-24T18:40:59.738Z,2.07
2019-02-24T18:43:28.699Z,2.10
2019-02-24T18:45:57.565Z,2.17
2019-02-24T18:48:26.816Z,1.72
2019-02-24T18:50:56.360Z,1.67
2019-02-24T18:53:25.414Z,1.90
2019-02-24T18:55:54.467Z,2.10
2019-02-24T18:58:23.348Z,1.87
2019-02-24T19:00:52.457Z,1.50
2019-02-24T19:03:21.571Z,1.80
2019-02-24T19:05:50.574Z,1.70
2019-02-24T19:08:19.639Z,1.52
2019-02-24T19:10:48.574Z,2.20
2019-02-24T19:13:17.468Z,2.20
2019-02-24T19:15:47.061Z,2.00
2019-02-24T19:18:16.757Z,2.05
2019-02-24T19:20:45.806Z,1.90
2019-02-24T19:23:14.654Z,1.90
2019-02-24T19:25:43.619Z,1.80
2019-02-24T19:28:12.877Z,2.22
2019-02-24T19:30:43.412Z,2.13
2019-02-24T19:33:12.839Z,2.17
2019-02-24T19:35:42.504Z,2.20
2019-02-24T19:38:11.447Z,2.08
2019-02-24T19:40:41.200Z,2.00
2019-02-24T19:43:10.060Z,1.95
2019-02-24T19:45:38.993Z,1.90
2019-02-24T19:48:07.962Z,1.67
2019-02-24T19:50:36.968Z,1.90
2019-02-24T19:53:06.147Z,1.70
2019-02-24T19:55:35.198Z,1.90
2019-02-24T19:58:04.247Z,1.80
2019-02-24T20:00:33.292Z,1.77
2019-02-24T20:03:02.648Z,1.70
2019-02-24T20:05:31.806Z,2.00
2019-02-24T20:08:01.199Z,1.87
2019-02-24T20:10:30.225Z,2.13
2019-02-24T20:12:59.149Z,1.65
2019-02-24T20:15:28.060Z,1.80
2019-02-24T20:17:57.215Z,1.60
2019-02-24T20:20:26.147Z,1.87
2019-02-24T20:22:55.188Z,2.22
2019-02-24T20:25:24.179Z,1.67
2019-02-24T20:27:53.555Z,1.80
2019-02-24T20:30:24.717Z,1.90
2019-02-24T20:32:53.600Z,2.37
2019-02-24T20:35:23.434Z,3.02
2019-02-24T20:37:52.354Z,3.05
2019-02-24T20:40:21.407Z,2.40
2019-02-24T20:42:50.701Z,2.60
2019-02-24T20:45:19.959Z,3.00
2019-02-24T20:47:49.520Z,2.50
2019-02-24T20:50:19.487Z,2.25
2019-02-24T20:52:48.496Z,2.08
2019-02-24T20:55:17.479Z,1.85
2019-02-24T20:57:46.551Z,2.08
2019-02-24T21:00:24.433Z,2.15
2019-02-24T21:02:54.014Z,2.15
2019-02-24T21:05:23.654Z,2.17
2019-02-24T21:07:53.373Z,2.05
2019-02-24T21:10:22.444Z,2.27
2019-02-24T21:12:51.396Z,1.90
2019-02-24T21:15:20.457Z,2.95
2019-02-24T21:17:49.786Z,3.12
2019-02-24T21:20:20.767Z,3.20
2019-02-24T21:22:50.732Z,3.42
2019-02-24T21:25:19.906Z,2.58
2019-02-24T21:27:48.867Z,2.83
2019-02-24T21:30:17.880Z,3.42
2019-02-24T21:32:46.972Z,3.62
2019-02-24T21:35:17.336Z,2.92
2019-02-24T21:37:46.481Z,2.80
2019-02-24T21:40:15.626Z,2.75
2019-02-24T21:42:44.653Z,2.80
2019-02-24T21:45:15.991Z,2.80
2019-02-24T21:47:45.381Z,2.35
2019-02-24T21:50:15.108Z,2.75
2019-02-24T21:52:44.058Z,2.42
2019-02-24T21:55:13.142Z,2.37
2019-02-24T21:57:42.544Z,2.52
2019-02-24T22:00:14.234Z,2.37
2019-02-24T22:02:43.296Z,2.42
2019-02-24T22:05:12.451Z,2.45
2019-02-24T22:07:41.444Z,2.35
2019-02-24T22:10:11.079Z,2.25
2019-02-24T22:12:40.042Z,2.27
2019-02-24T22:15:11.278Z,2.10
2019-02-24T22:17:40.166Z,2.55
2019-02-24T22:20:09.591Z,2.40
2019-02-24T22:22:38.503Z,2.37
2019-02-24T22:25:07.986Z,2.33
2019-02-24T22:27:37.007Z,2.70
2019-02-24T22:30:07.173Z,2.65
2019-02-24T22:32:36.344Z,2.72
2019-02-24T22:35:05.691Z,3.47
2019-02-24T22:37:34.794Z,2.80
2019-02-24T22:40:04.022Z,2.70
2019-02-24T22:42:33.338Z,2.47
2019-02-24T22:45:02.375Z,2.30
2019-02-24T22:47:31.313Z,2.60
2019-02-24T22:50:00.395Z,2.37
2019-02-24T22:52:30.174Z,3.00
2019-02-24T22:54:59.155Z,2.70
2019-02-24T22:57:28.236Z,2.20
2019-02-24T22:59:57.083Z,2.22
2019-02-24T23:02:26.202Z,2.12
2019-02-24T23:04:55.189Z,2.37
2019-02-24T23:07:24.327Z,2.67
2019-02-24T23:09:53.263Z,2.47
2019-02-24T23:12:22.210Z,2.30
2019-02-24T23:14:51.545Z,2.17
2019-02-24T23:17:20.595Z,2.37
2019-02-24T23:19:49.553Z,2.62
2019-02-24T23:22:18.811Z,2.20
2019-02-24T23:24:47.962Z,2.67
2019-02-24T23:27:16.836Z,2.67
2019-02-24T23:29:45.922Z,2.77
2019-02-24T23:32:14.948Z,2.92
2019-02-24T23:34:44.640Z,2.67
2019-02-24T23:37:13.895Z,2.60
2019-02-24T23:39:44.084Z,2.40
2019-02-24T23:42:13.235Z,2.43
2019-02-24T23:44:42.182Z,2.40
2019-02-24T23:47:11.475Z,2.60
2019-02-24T23:49:40.526Z,2.20
2019-02-24T23:52:09.663Z,2.47
2019-02-24T23:54:38.897Z,2.35
2019-02-24T23:57:07.949Z,2.30
2019-02-24T23:59:37.746Z,2.45
